Castle Dale, Utah
Current Conditions -  °F | °C
As of 12:53 PM on Thursday 23 Oct 2014 (Local Time) from KPUC Reporting Station
Clear Clear  
Wind Chill: 63°   Ceiling: Unl
Heat Index: 63°   Visibility: 10mi
Dew Point: 29°   Wind: 6mph
Humidity: 28%   Direction: NA
Pressure: 30.27"   Gusts: NA
Location:  39.21°N, 111.02°W
Report Text: KPUC 231853Z AUTO VRB05KT 10SM CLR 17/M02 A3027 RMK AO2 SLP218 T01721017 TSNO
Loading
Personal Weather Stations






























Interactive Weather Map
Tropical Storm Tracking
New forecast layout! Learn more

10-Day Weather Forecast

Advertisements
Track Severe Weather on mobile